Time;durP1;ratioP1;P1;durP2;ratioP2;P2;SDS_P1;SDS_P2;PMS_P1;PMS_P2;Temp;Humidity;BMP_temperature;BMP_pressure;BME280_temperature;BME280_humidity;BME280_pressure;Samples;Min_cycle;Max_cycle;Signal;HPM_P1;HPM_P2
2023/01/08 00:02:05;;;;;;;2.63;2.33;;;5.70;99.90;;;;;;5047754;28;20208;-70
2023/01/08 00:04:31;;;;;;;1.55;1.45;;;5.80;99.90;;;;;;5047996;28;20655;-70
2023/01/08 00:06:58;;;;;;;2.45;2.25;;;5.80;99.90;;;;;;5048846;28;20215;-69
2023/01/08 00:09:25;;;;;;;3.28;3.03;;;5.80;99.90;;;;;;5048444;28;20211;-70
2023/01/08 00:11:52;;;;;;;2.80;2.00;;;5.80;99.90;;;;;;5048732;28;20365;-70
2023/01/08 00:14:18;;;;;;;4.25;3.88;;;5.70;99.90;;;;;;5049177;28;20223;-70
2023/01/08 00:16:47;;;;;;;1.20;1.10;;;5.80;99.90;;;;;;5048668;28;20192;-70
2023/01/08 00:19:14;;;;;;;1.45;1.35;;;5.80;99.90;;;;;;5048317;28;20203;-70
2023/01/08 00:21:40;;;;;;;4.60;1.95;;;5.80;99.90;;;;;;5048805;28;20568;-70
2023/01/08 00:24:07;;;;;;;1.20;1.15;;;5.80;99.90;;;;;;5048566;28;20315;-70
2023/01/08 00:26:34;;;;;;;1.33;1.10;;;5.80;99.90;;;;;;5048830;28;20210;-69
2023/01/08 00:29:01;;;;;;;2.28;2.08;;;5.80;99.90;;;;;;5048657;28;21681;-70
2023/01/08 00:31:28;;;;;;;2.15;1.13;;;5.80;99.90;;;;;;5047168;28;20274;-70
2023/01/08 00:33:56;;;;;;;5.85;2.25;;;5.80;99.90;;;;;;5047449;28;20212;-71
2023/01/08 00:36:23;;;;;;;4.10;2.67;;;5.80;99.90;;;;;;5048581;28;20215;-70
2023/01/08 00:38:49;;;;;;;1.75;1.23;;;5.80;99.90;;;;;;5048325;28;20576;-70
2023/01/08 00:41:17;;;;;;;2.47;2.28;;;5.80;99.90;;;;;;5048073;28;20567;-70
2023/01/08 00:43:43;;;;;;;1.70;1.42;;;5.80;99.90;;;;;;5047908;28;20577;-70
2023/01/08 00:46:10;;;;;;;6.38;2.45;;;5.90;99.90;;;;;;5047638;28;20208;-71
2023/01/08 00:48:37;;;;;;;2.53;1.50;;;5.90;99.90;;;;;;5048163;28;20620;-69
2023/01/08 00:51:07;;;;;;;2.63;2.17;;;5.90;99.90;;;;;;5047752;28;20215;-70
2023/01/08 00:53:34;;;;;;;1.75;1.35;;;5.90;99.90;;;;;;5048507;28;20222;-70
2023/01/08 00:56:02;;;;;;;1.98;1.40;;;5.90;99.90;;;;;;5047989;28;20196;-69
2023/01/08 00:58:29;;;;;;;1.58;1.40;;;5.90;99.90;;;;;;5044502;28;20205;-70
2023/01/08 01:00:55;;;;;;;1.35;1.20;;;5.90;99.90;;;;;;5045010;28;20227;-69
2023/01/08 01:03:22;;;;;;;1.73;1.63;;;5.90;99.90;;;;;;5047719;28;20202;-69
2023/01/08 01:05:49;;;;;;;2.03;1.92;;;5.90;99.90;;;;;;5048199;28;20578;-70
2023/01/08 01:08:17;;;;;;;1.80;1.65;;;5.90;99.90;;;;;;5048054;28;20203;-70
2023/01/08 01:10:44;;;;;;;3.17;1.77;;;5.90;99.90;;;;;;5047493;28;20619;-73
2023/01/08 01:13:11;;;;;;;1.25;1.15;;;5.90;99.90;;;;;;5047552;28;20206;-70
2023/01/08 01:15:38;;;;;;;2.58;1.90;;;5.80;99.90;;;;;;5046430;28;20223;-70
2023/01/08 01:18:04;;;;;;;2.17;2.00;;;5.90;99.90;;;;;;5047965;28;20211;-70
2023/01/08 01:20:31;;;;;;;4.18;1.73;;;5.90;99.90;;;;;;5048160;28;20210;-70
2023/01/08 01:22:58;;;;;;;1.88;1.77;;;5.90;99.90;;;;;;5046687;28;20196;-69
2023/01/08 01:25:26;;;;;;;2.42;1.75;;;5.90;99.90;;;;;;5047496;28;20206;-71
2023/01/08 01:27:53;;;;;;;2.25;2.05;;;5.90;99.90;;;;;;5047347;28;20200;-70
2023/01/08 01:30:20;;;;;;;2.45;1.75;;;5.90;99.90;;;;;;5047846;28;20206;-70
2023/01/08 01:32:46;;;;;;;2.60;1.50;;;5.90;99.90;;;;;;5047068;28;20196;-70
2023/01/08 01:35:13;;;;;;;3.38;1.83;;;5.90;99.90;;;;;;5046975;28;20224;-69
2023/01/08 01:37:40;;;;;;;1.80;1.70;;;6.00;99.90;;;;;;5047483;28;20198;-69
2023/01/08 01:40:07;;;;;;;2.30;2.10;;;6.00;99.90;;;;;;5047222;28;20200;-70
2023/01/08 01:42:42;;;;;;;1.25;1.15;;;6.00;99.90;;;;;;5045757;28;20188;-70
2023/01/08 01:45:19;;;;;;;3.10;2.80;;;6.00;99.90;;;;;;5047731;28;20199;-71
2023/01/08 01:47:49;;;;;;;1.42;1.35;;;5.90;99.90;;;;;;5027890;28;20211;-70
2023/01/08 01:50:19;;;;;;;3.55;1.50;;;5.90;99.90;;;;;;5040423;28;20203;-69
2023/01/08 01:52:51;;;;;;;1.95;1.45;;;5.90;99.90;;;;;;5046476;28;20654;-70
2023/01/08 01:55:18;;;;;;;1.38;1.27;;;6.00;99.90;;;;;;5046984;28;20219;-70
2023/01/08 01:57:51;;;;;;;4.32;2.22;;;6.00;99.90;;;;;;5047699;28;20207;-70
2023/01/08 02:00:19;;;;;;;3.85;1.98;;;6.00;99.90;;;;;;5047030;28;20208;-70
2023/01/08 02:02:46;;;;;;;1.85;1.50;;;5.90;99.90;;;;;;5045805;28;20567;-69
2023/01/08 02:05:12;;;;;;;2.17;1.40;;;5.90;99.90;;;;;;5047060;28;20203;-69
2023/01/08 02:07:47;;;;;;;3.92;2.60;;;5.90;99.90;;;;;;5046283;28;20196;-71
2023/01/08 02:10:20;;;;;;;1.75;1.65;;;6.00;99.90;;;;;;5033362;28;20200;-70
2023/01/08 02:12:57;;;;;;;5.95;3.70;;;6.10;99.90;;;;;;5046467;28;20203;-70
2023/01/08 02:15:30;;;;;;;1.80;1.00;;;6.20;99.90;;;;;;5047110;28;20231;-69
2023/01/08 02:18:05;;;;;;;2.50;2.30;;;6.20;99.90;;;;;;5046919;28;20524;-70
2023/01/08 02:20:37;;;;;;;4.28;2.00;;;6.50;99.90;;;;;;5047140;28;20207;-70
2023/01/08 02:23:14;;;;;;;1.80;1.65;;;6.10;99.90;;;;;;5046290;28;20259;-69
2023/01/08 02:26:19;;;;;;;1.83;1.50;;;6.00;99.90;;;;;;5046899;28;20753;-69
2023/01/08 02:28:52;;;;;;;1.80;1.70;;;6.00;99.90;;;;;;5047327;28;20666;-72
2023/01/08 02:31:22;;;;;;;4.13;2.40;;;6.20;99.90;;;;;;5050228;28;20208;-70
2023/01/08 02:33:50;;;;;;;3.05;1.58;;;6.10;99.90;;;;;;5050776;28;20207;-69
2023/01/08 02:36:34;;;;;;;1.60;1.50;;;6.10;99.90;;;;;;5050509;28;20223;-69
2023/01/08 02:39:21;;;;;;;2.00;1.85;;;6.20;99.90;;;;;;5050213;28;20660;-70
2023/01/08 02:42:14;;;;;;;1.58;1.40;;;6.10;99.90;;;;;;5050570;28;20199;-70
2023/01/08 02:44:58;;;;;;;1.60;1.50;;;6.10;99.90;;;;;;5045445;28;20808;-71
2023/01/08 02:47:32;;;;;;;5.38;2.17;;;6.10;99.90;;;;;;5031038;28;20200;-70
2023/01/08 02:50:07;;;;;;;1.60;1.38;;;6.00;99.90;;;;;;5047357;28;20200;-70
2023/01/08 02:52:42;;;;;;;3.97;1.77;;;6.00;99.90;;;;;;5050053;28;20290;-70
2023/01/08 02:55:11;;;;;;;2.10;1.98;;;6.00;99.90;;;;;;5050344;28;20277;-70
2023/01/08 02:57:41;;;;;;;2.08;1.95;;;5.90;99.90;;;;;;5050357;28;20302;-70
2023/01/08 03:00:11;;;;;;;4.30;2.58;;;5.90;99.90;;;;;;5049783;28;20203;-70
2023/01/08 03:02:41;;;;;;;2.15;1.48;;;6.00;99.90;;;;;;5049889;28;20200;-70
2023/01/08 03:05:16;;;;;;;1.85;1.73;;;6.00;99.90;;;;;;5050258;28;20721;-70
2023/01/08 03:07:46;;;;;;;1.30;1.20;;;6.00;99.90;;;;;;5050493;28;20208;-70
2023/01/08 03:10:15;;;;;;;4.47;1.70;;;6.00;99.90;;;;;;5049824;28;20200;-70
2023/01/08 03:12:51;;;;;;;2.20;1.60;;;5.90;99.90;;;;;;5049105;28;20407;-69
2023/01/08 03:15:25;;;;;;;2.38;1.80;;;6.00;99.90;;;;;;5041639;28;20230;-70
2023/01/08 03:17:57;;;;;;;1.30;1.13;;;6.10;99.90;;;;;;5050465;28;20204;-70
2023/01/08 03:20:25;;;;;;;2.78;1.77;;;6.00;99.90;;;;;;5049980;28;20192;-70
2023/01/08 03:22:55;;;;;;;11.43;1.60;;;6.00;99.90;;;;;;5049481;28;20196;-69
2023/01/08 03:25:24;;;;;;;5.30;1.80;;;5.90;99.90;;;;;;5050096;28;20674;-69
2023/01/08 03:27:57;;;;;;;2.03;1.92;;;6.10;99.90;;;;;;5049492;28;20733;-69
2023/01/08 03:30:25;;;;;;;2.95;1.70;;;6.00;99.90;;;;;;5049876;28;20204;-69
2023/01/08 03:32:55;;;;;;;3.28;1.80;;;6.00;99.90;;;;;;5049035;28;20208;-70
2023/01/08 03:35:26;;;;;;;3.30;1.50;;;6.00;99.90;;;;;;5034429;28;20653;-68
2023/01/08 03:37:57;;;;;;;2.65;2.10;;;6.10;99.90;;;;;;5048878;28;20568;-68
2023/01/08 03:40:31;;;;;;;1.40;1.30;;;6.00;99.90;;;;;;5049817;28;20204;-69
2023/01/08 03:43:00;;;;;;;2.20;2.10;;;6.10;99.90;;;;;;5048206;28;20291;-69
2023/01/08 03:45:31;;;;;;;4.38;2.45;;;6.10;99.90;;;;;;5049198;28;20638;-70
2023/01/08 03:48:02;;;;;;;2.35;1.83;;;5.90;99.90;;;;;;5049989;28;20689;-69
2023/01/08 03:50:32;;;;;;;2.67;2.47;;;6.10;99.90;;;;;;5049371;28;20206;-69
2023/01/08 03:52:59;;;;;;;4.15;2.28;;;6.10;99.90;;;;;;5048856;28;20338;-69
2023/01/08 03:55:27;;;;;;;6.20;2.53;;;6.10;99.90;;;;;;5048660;28;20269;-69
2023/01/08 03:57:55;;;;;;;3.47;2.17;;;6.10;99.90;;;;;;5049192;28;20616;-69
2023/01/08 04:00:25;;;;;;;1.45;1.17;;;6.10;99.90;;;;;;5046995;28;20200;-70
2023/01/08 04:02:53;;;;;;;3.15;2.25;;;6.10;99.90;;;;;;5047537;28;20204;-69
2023/01/08 04:05:21;;;;;;;1.48;1.38;;;6.10;99.90;;;;;;5049223;28;20203;-69
2023/01/08 04:07:49;;;;;;;2.10;1.35;;;6.10;99.90;;;;;;5049295;28;20229;-69
2023/01/08 04:10:17;;;;;;;4.75;2.15;;;6.10;99.90;;;;;;5049001;28;20196;-69
2023/01/08 04:12:45;;;;;;;3.35;2.40;;;6.10;99.90;;;;;;5047844;28;20202;-69
2023/01/08 04:15:12;;;;;;;5.70;1.98;;;6.10;99.90;;;;;;5049013;28;20254;-69
2023/01/08 04:17:42;;;;;;;5.82;2.00;;;6.10;99.90;;;;;;5049072;28;20673;-68
2023/01/08 04:20:10;;;;;;;1.58;1.48;;;6.10;99.90;;;;;;5048809;28;20326;-68
2023/01/08 04:22:37;;;;;;;6.18;2.75;;;6.10;99.90;;;;;;5047719;28;20196;-69
2023/01/08 04:25:05;;;;;;;1.10;1.10;;;6.20;99.90;;;;;;5048323;28;20543;-69
2023/01/08 04:27:31;;;;;;;2.17;1.65;;;6.30;99.90;;;;;;5048124;28;20731;-69
2023/01/08 04:29:58;;;;;;;2.08;1.90;;;6.30;99.90;;;;;;5048674;28;20204;-69
2023/01/08 04:32:25;;;;;;;1.30;1.17;;;6.30;99.90;;;;;;5048319;28;20223;-68
2023/01/08 04:34:53;;;;;;;2.20;1.40;;;6.20;99.90;;;;;;5047852;28;20215;-69
2023/01/08 04:37:21;;;;;;;2.50;1.55;;;6.40;99.90;;;;;;5048128;28;20200;-69
2023/01/08 04:39:50;;;;;;;2.33;0.90;;;6.40;99.90;;;;;;5047704;28;20625;-69
2023/01/08 04:42:18;;;;;;;2.10;0.73;;;6.40;99.90;;;;;;5045943;28;20885;-68
2023/01/08 04:44:47;;;;;;;1.27;0.57;;;6.50;99.90;;;;;;5048130;28;20192;-69
2023/01/08 04:47:16;;;;;;;0.80;0.80;;;6.60;99.90;;;;;;5048689;28;20200;-69
2023/01/08 04:49:44;;;;;;;0.60;0.60;;;6.90;99.90;;;;;;5047790;28;20227;-69
2023/01/08 04:52:13;;;;;;;4.35;1.90;;;7.10;99.90;;;;;;5047245;28;20200;-69
2023/01/08 04:54:43;;;;;;;0.60;0.60;;;7.20;99.90;;;;;;5048111;28;20220;-69
2023/01/08 04:57:11;;;;;;;1.30;1.20;;;7.20;99.80;;;;;;5048510;28;20253;-70
2023/01/08 04:59:37;;;;;;;1.40;0.95;;;7.30;99.80;;;;;;5048006;28;20210;-70
2023/01/08 05:02:04;;;;;;;0.50;0.50;;;7.50;99.70;;;;;;5047457;28;20226;-68
2023/01/08 05:04:31;;;;;;;0.50;0.40;;;7.50;99.50;;;;;;5047787;28;20654;-70
2023/01/08 05:06:58;;;;;;;0.70;0.70;;;7.60;99.60;;;;;;5047634;28;20204;-69
2023/01/08 05:09:26;;;;;;;1.13;0.80;;;7.70;99.70;;;;;;5047772;28;20618;-68
2023/01/08 05:11:53;;;;;;;0.90;0.90;;;7.80;99.90;;;;;;5047578;28;20618;-69
2023/01/08 05:14:19;;;;;;;3.22;1.60;;;7.80;99.90;;;;;;5047583;28;20637;-70
2023/01/08 05:16:46;;;;;;;1.70;0.75;;;7.80;99.90;;;;;;5047711;28;20228;-70
2023/01/08 05:19:13;;;;;;;1.07;0.97;;;7.80;99.90;;;;;;5048018;28;20196;-70
2023/01/08 05:21:40;;;;;;;0.77;0.73;;;7.90;99.90;;;;;;5047013;28;20619;-69
2023/01/08 05:24:08;;;;;;;0.60;0.60;;;7.80;99.90;;;;;;5047205;28;20196;-69
2023/01/08 05:26:36;;;;;;;1.40;1.17;;;7.90;99.90;;;;;;5047463;28;20199;-70
2023/01/08 05:29:03;;;;;;;1.30;1.17;;;7.90;99.90;;;;;;5046932;28;20633;-69
2023/01/08 05:31:29;;;;;;;1.87;0.97;;;7.90;99.90;;;;;;5047481;28;21224;-69
2023/01/08 05:33:57;;;;;;;0.57;0.57;;;7.90;99.90;;;;;;5046814;28;21133;-69
2023/01/08 05:36:24;;;;;;;1.20;0.70;;;7.90;99.90;;;;;;5047343;28;20677;-69
2023/01/08 05:38:51;;;;;;;1.00;0.67;;;7.90;99.90;;;;;;5047309;28;20622;-69
2023/01/08 05:41:18;;;;;;;0.70;0.67;;;7.90;99.90;;;;;;5046783;28;20734;-70
2023/01/08 05:43:46;;;;;;;0.83;0.73;;;8.00;99.90;;;;;;5042173;28;20633;-69
2023/01/08 05:46:13;;;;;;;1.33;0.63;;;8.00;99.90;;;;;;5047309;28;20630;-70
2023/01/08 05:48:39;;;;;;;1.27;1.00;;;8.00;99.90;;;;;;5047692;28;21189;-69
2023/01/08 05:51:06;;;;;;;0.67;0.40;;;7.90;99.90;;;;;;5046966;28;20626;-69
2023/01/08 05:53:33;;;;;;;1.00;0.80;;;7.90;99.90;;;;;;5036409;28;20627;-69
2023/01/08 05:56:01;;;;;;;0.60;0.60;;;7.90;99.90;;;;;;5045176;28;21020;-69
2023/01/08 05:58:28;;;;;;;1.25;1.15;;;7.90;99.90;;;;;;5047218;28;20622;-69
2023/01/08 06:01:02;;;;;;;1.20;0.80;;;7.80;99.90;;;;;;5045478;28;20208;-69
2023/01/08 06:03:29;;;;;;;1.17;0.77;;;7.80;99.90;;;;;;5047448;28;20233;-69
2023/01/08 06:05:59;;;;;;;3.10;0.97;;;7.80;99.90;;;;;;5047042;28;20215;-70
2023/01/08 06:08:25;;;;;;;0.60;0.60;;;7.80;99.90;;;;;;5047117;28;20619;-70
2023/01/08 06:10:52;;;;;;;0.90;0.90;;;7.70;99.90;;;;;;5047219;28;20199;-69
2023/01/08 06:13:19;;;;;;;1.15;1.05;;;7.70;99.90;;;;;;5046562;28;20626;-70
2023/01/08 06:15:46;;;;;;;0.70;0.70;;;7.70;99.90;;;;;;5046835;28;20229;-70
2023/01/08 06:18:14;;;;;;;13.60;0.75;;;7.70;99.90;;;;;;5047292;28;20611;-69
2023/01/08 06:20:40;;;;;;;0.90;0.90;;;7.80;99.90;;;;;;5047313;28;20207;-69
2023/01/08 06:23:08;;;;;;;3.50;0.50;;;7.80;99.90;;;;;;5046139;28;20627;-69
2023/01/08 06:25:35;;;;;;;0.50;0.50;;;7.70;99.90;;;;;;5046632;28;20642;-70
2023/01/08 06:28:02;;;;;;;0.53;0.50;;;7.60;99.90;;;;;;5046352;28;21041;-69
2023/01/08 06:30:29;;;;;;;0.85;0.80;;;7.60;99.90;;;;;;5046881;28;20749;-69
2023/01/08 06:32:56;;;;;;;1.70;0.77;;;7.60;99.90;;;;;;5046341;28;20294;-70
2023/01/08 06:35:25;;;;;;;0.57;0.40;;;7.60;99.90;;;;;;5046896;28;20914;-69
2023/01/08 06:37:52;;;;;;;0.37;0.37;;;7.50;99.90;;;;;;5047058;28;20986;-69
2023/01/08 06:40:18;;;;;;;0.87;0.77;;;7.60;99.90;;;;;;5046766;28;21052;-70
2023/01/08 06:42:45;;;;;;;1.57;0.60;;;7.10;99.90;;;;;;5040664;28;21908;-69
2023/01/08 06:45:12;;;;;;;0.65;0.65;;;7.60;99.90;;;;;;5046836;28;21210;-69
2023/01/08 06:47:39;;;;;;;0.90;0.90;;;7.60;99.90;;;;;;5047621;28;20210;-69
2023/01/08 06:50:06;;;;;;;2.97;1.15;;;7.60;99.90;;;;;;5046546;28;20640;-69
2023/01/08 06:52:34;;;;;;;0.40;0.40;;;7.60;99.90;;;;;;5046438;28;20560;-70
2023/01/08 06:55:03;;;;;;;0.45;0.40;;;7.60;99.90;;;;;;5046009;28;20576;-69
2023/01/08 06:57:30;;;;;;;0.98;0.70;;;7.70;99.90;;;;;;5046874;28;20305;-70
2023/01/08 06:59:57;;;;;;;30.38;1.05;;;7.70;99.90;;;;;;5045722;28;20200;-70
2023/01/08 07:02:24;;;;;;;1.13;0.90;;;7.50;99.90;;;;;;5046373;28;20231;-70
2023/01/08 07:04:51;;;;;;;0.50;0.40;;;7.60;99.90;;;;;;5046475;28;20346;-69
2023/01/08 07:07:17;;;;;;;0.75;0.50;;;7.60;99.90;;;;;;5046729;28;20208;-70
2023/01/08 07:09:46;;;;;;;0.95;0.43;;;7.60;99.90;;;;;;5046064;28;20200;-69
2023/01/08 07:12:13;;;;;;;0.40;0.40;;;7.70;99.90;;;;;;5046024;28;20196;-69
2023/01/08 07:14:40;;;;;;;0.40;0.30;;;7.70;99.90;;;;;;5049999;28;20191;-70
2023/01/08 07:17:07;;;;;;;0.70;0.50;;;7.60;99.90;;;;;;5064907;28;20228;-69
2023/01/08 07:19:34;;;;;;;0.40;0.40;;;7.60;99.90;;;;;;5050267;28;20503;-69
2023/01/08 07:22:01;;;;;;;0.60;0.60;;;7.60;99.90;;;;;;5049864;28;20900;-70
2023/01/08 07:24:28;;;;;;;0.55;0.55;;;7.60;99.90;;;;;;5049657;28;20192;-69
2023/01/08 07:26:56;;;;;;;0.60;0.60;;;7.60;99.90;;;;;;5050058;28;20203;-69
2023/01/08 07:29:23;;;;;;;0.30;0.30;;;7.60;99.90;;;;;;5049772;28;20196;-69
2023/01/08 07:31:50;;;;;;;1.35;1.23;;;7.60;99.90;;;;;;5041346;28;20288;-68
2023/01/08 07:34:17;;;;;;;0.50;0.50;;;7.60;99.90;;;;;;5040015;28;20206;-69
2023/01/08 07:36:44;;;;;;;0.47;0.30;;;7.60;99.90;;;;;;5038675;28;20240;-70
2023/01/08 07:39:11;;;;;;;0.43;0.43;;;7.60;99.90;;;;;;5040042;28;20203;-70
2023/01/08 07:41:38;;;;;;;0.57;0.45;;;7.60;99.90;;;;;;5043201;28;20283;-70
2023/01/08 07:44:06;;;;;;;1.52;0.60;;;7.60;99.90;;;;;;5045928;28;20303;-70
2023/01/08 07:46:33;;;;;;;1.20;0.63;;;7.60;99.90;;;;;;5049830;28;20302;-70
2023/01/08 07:49:00;;;;;;;3.35;0.65;;;7.50;99.90;;;;;;5049482;28;20200;-70
2023/01/08 07:51:26;;;;;;;0.43;0.38;;;7.40;99.90;;;;;;5048479;28;20202;-70
2023/01/08 07:53:55;;;;;;;0.40;0.40;;;7.50;99.90;;;;;;5048974;28;20219;-70
2023/01/08 07:56:22;;;;;;;0.40;0.40;;;7.50;99.90;;;;;;5048683;28;20228;-71
2023/01/08 07:58:49;;;;;;;1.20;0.73;;;7.60;99.90;;;;;;5048687;28;20192;-70
2023/01/08 08:01:17;;;;;;;0.47;0.43;;;7.50;99.90;;;;;;5048632;28;20212;-70
2023/01/08 08:03:44;;;;;;;0.40;0.40;;;7.50;99.90;;;;;;5048630;28;20191;-70
2023/01/08 08:06:11;;;;;;;0.85;0.80;;;7.50;99.90;;;;;;5049426;28;20615;-71
2023/01/08 08:08:37;;;;;;;0.43;0.43;;;7.60;99.90;;;;;;5049206;28;20204;-70
2023/01/08 08:11:04;;;;;;;0.73;0.60;;;7.50;99.90;;;;;;5048769;28;20204;-70
2023/01/08 08:13:31;;;;;;;0.65;0.65;;;7.50;99.90;;;;;;5048745;28;20215;-70
2023/01/08 08:16:02;;;;;;;0.40;0.32;;;7.50;99.90;;;;;;5048599;28;20230;-69
2023/01/08 08:18:30;;;;;;;1.10;0.60;;;7.40;99.90;;;;;;5048259;28;20218;-70
2023/01/08 08:20:57;;;;;;;0.40;0.40;;;7.40;99.90;;;;;;5048438;28;21000;-69
2023/01/08 08:23:24;;;;;;;0.75;0.75;;;7.50;99.90;;;;;;5048654;28;20203;-71
2023/01/08 08:25:51;;;;;;;0.80;0.52;;;7.50;99.90;;;;;;5043018;28;20199;-71
2023/01/08 08:28:18;;;;;;;0.40;0.30;;;7.40;99.90;;;;;;5031597;28;20303;-71
2023/01/08 08:30:45;;;;;;;0.73;0.60;;;7.40;99.90;;;;;;5048663;28;20200;-71
2023/01/08 08:33:12;;;;;;;1.40;0.40;;;7.50;99.90;;;;;;5048604;28;20340;-71
2023/01/08 08:35:40;;;;;;;0.38;0.35;;;7.40;99.90;;;;;;5048764;28;20210;-71
2023/01/08 08:38:07;;;;;;;0.47;0.38;;;7.40;99.90;;;;;;5048316;28;20215;-71
2023/01/08 08:40:33;;;;;;;0.57;0.57;;;7.40;99.90;;;;;;5048239;28;20207;-70
2023/01/08 08:43:03;;;;;;;0.80;0.60;;;7.40;99.90;;;;;;5047743;28;20200;-71
2023/01/08 08:45:30;;;;;;;0.45;0.45;;;7.40;99.90;;;;;;5046540;28;20188;-71
2023/01/08 08:47:57;;;;;;;2.85;1.05;;;7.40;99.90;;;;;;5048576;28;20192;-71
2023/01/08 08:50:24;;;;;;;0.90;0.60;;;7.40;99.90;;;;;;5048320;28;20195;-70
2023/01/08 08:52:52;;;;;;;0.47;0.40;;;7.40;99.90;;;;;;5047947;28;20188;-71
2023/01/08 08:55:19;;;;;;;1.20;1.17;;;7.40;99.90;;;;;;5048202;28;20196;-70
2023/01/08 08:57:47;;;;;;;0.60;0.60;;;7.50;99.90;;;;;;5047995;28;20311;-70
2023/01/08 09:00:15;;;;;;;0.63;0.63;;;7.40;99.90;;;;;;5043106;28;20283;-71
2023/01/08 09:02:42;;;;;;;0.90;0.75;;;7.40;99.90;;;;;;5047615;28;20286;-71
2023/01/08 09:05:09;;;;;;;0.70;0.70;;;7.40;99.90;;;;;;5048197;28;20196;-70
2023/01/08 09:07:36;;;;;;;0.68;0.68;;;7.50;99.90;;;;;;5048232;28;20242;-71
2023/01/08 09:10:05;;;;;;;0.50;0.50;;;7.50;99.90;;;;;;5047801;28;20192;-70
2023/01/08 09:12:31;;;;;;;0.75;0.57;;;7.50;99.90;;;;;;5046687;28;20188;-71
2023/01/08 09:14:58;;;;;;;0.30;0.30;;;7.50;99.90;;;;;;5047826;28;20200;-71
2023/01/08 09:17:25;;;;;;;0.50;0.30;;;7.60;99.90;;;;;;5047580;28;20689;-69
2023/01/08 09:19:52;;;;;;;1.90;0.95;;;7.60;99.90;;;;;;5047874;28;20245;-70
2023/01/08 09:22:19;;;;;;;1.02;0.93;;;7.60;99.90;;;;;;5046849;28;20729;-70
2023/01/08 09:24:46;;;;;;;0.60;0.60;;;7.60;99.90;;;;;;5047064;28;20317;-71
2023/01/08 09:27:14;;;;;;;1.23;1.05;;;7.60;99.90;;;;;;5046792;28;20194;-70
2023/01/08 09:29:41;;;;;;;0.65;0.38;;;7.60;99.90;;;;;;5047711;28;20200;-71
2023/01/08 09:32:08;;;;;;;0.50;0.50;;;7.60;99.90;;;;;;5047034;28;20200;-71
2023/01/08 09:34:35;;;;;;;0.70;0.70;;;7.60;99.90;;;;;;5047602;28;20196;-70
2023/01/08 09:37:03;;;;;;;0.60;0.30;;;7.60;99.90;;;;;;5047166;28;20223;-71
2023/01/08 09:39:29;;;;;;;0.95;0.95;;;7.70;99.90;;;;;;5046875;28;20630;-70
2023/01/08 09:41:58;;;;;;;0.40;0.40;;;7.70;99.90;;;;;;5045503;28;20700;-70
2023/01/08 09:44:31;;;;;;;0.60;0.60;;;7.70;99.90;;;;;;5047162;28;20622;-72
2023/01/08 09:46:59;;;;;;;0.30;0.30;;;7.80;99.90;;;;;;5048189;28;20211;-70
2023/01/08 09:49:30;;;;;;;0.30;0.30;;;7.80;99.90;;;;;;5047741;28;20305;-70
2023/01/08 09:51:59;;;;;;;0.80;0.40;;;7.70;99.90;;;;;;5046965;28;20329;-70
2023/01/08 09:54:26;;;;;;;0.77;0.50;;;7.80;99.90;;;;;;5046866;28;20840;-70
2023/01/08 09:56:54;;;;;;;0.50;0.50;;;7.80;99.90;;;;;;5047567;28;20273;-70
2023/01/08 09:59:21;;;;;;;0.50;0.40;;;7.80;99.90;;;;;;5036541;28;20193;-70
2023/01/08 10:01:52;;;;;;;0.98;0.60;;;7.90;99.90;;;;;;5043581;28;20188;-70
2023/01/08 10:04:20;;;;;;;1.03;0.60;;;7.90;99.90;;;;;;5047176;28;20195;-71
2023/01/08 10:06:51;;;;;;;1.00;0.63;;;7.90;99.90;;;;;;5047315;28;20634;-69
2023/01/08 10:09:28;;;;;;;0.30;0.30;;;7.90;99.90;;;;;;5047494;28;20206;-70
2023/01/08 10:11:58;;;;;;;0.30;0.30;;;7.90;99.90;;;;;;5046596;28;20218;-70
2023/01/08 10:14:27;;;;;;;0.82;0.65;;;8.00;99.90;;;;;;5047315;28;20207;-70
2023/01/08 10:17:00;;;;;;;0.53;0.53;;;8.00;99.90;;;;;;5046522;28;20318;-69
2023/01/08 10:19:27;;;;;;;0.30;0.20;;;8.00;99.90;;;;;;5034596;28;21141;-69
2023/01/08 10:21:56;;;;;;;0.60;0.30;;;8.00;99.90;;;;;;5047006;28;20619;-70
2023/01/08 10:24:34;;;;;;;2.57;0.87;;;8.00;99.90;;;;;;5047121;28;20224;-69
2023/01/08 10:27:09;;;;;;;1.20;1.00;;;8.00;99.90;;;;;;5047344;28;20843;-69
2023/01/08 10:29:35;;;;;;;0.50;0.33;;;8.00;99.90;;;;;;5046409;28;20230;-70
2023/01/08 10:32:10;;;;;;;0.40;0.40;;;8.10;99.90;;;;;;5046620;28;20636;-70
2023/01/08 10:34:44;;;;;;;1.15;0.85;;;8.10;99.90;;;;;;5046860;28;20628;-71
2023/01/08 10:37:17;;;;;;;0.97;0.80;;;8.20;99.90;;;;;;5047244;28;20222;-70
2023/01/08 10:39:47;;;;;;;0.87;0.70;;;8.20;99.90;;;;;;5046686;28;20627;-70
2023/01/08 10:42:16;;;;;;;0.40;0.40;;;8.20;99.90;;;;;;5042341;28;20622;-70
2023/01/08 10:44:56;;;;;;;1.17;1.17;;;8.20;99.90;;;;;;5046683;28;20627;-69
2023/01/08 10:47:26;;;;;;;0.30;0.30;;;8.20;99.90;;;;;;5048240;28;20983;-69
2023/01/08 10:49:53;;;;;;;0.50;0.47;;;8.30;99.90;;;;;;5050396;28;20703;-70
2023/01/08 10:52:24;;;;;;;8.80;0.77;;;8.30;99.90;;;;;;5050398;28;21185;-69
2023/01/08 10:54:51;;;;;;;0.60;0.50;;;8.20;99.90;;;;;;5050095;28;21283;-70
2023/01/08 10:57:22;;;;;;;1.17;1.00;;;8.30;99.90;;;;;;5050791;28;21264;-70
2023/01/08 10:59:49;;;;;;;0.67;0.67;;;8.30;99.90;;;;;;5050454;28;20633;-69
2023/01/08 11:02:30;;;;;;;0.50;0.40;;;8.30;99.90;;;;;;5050261;28;20650;-69
2023/01/08 11:04:59;;;;;;;0.50;0.50;;;8.40;99.90;;;;;;5049798;28;20618;-71
2023/01/08 11:07:26;;;;;;;0.47;0.47;;;8.40;99.90;;;;;;5050422;28;20729;-70
2023/01/08 11:09:54;;;;;;;0.60;0.50;;;8.50;99.90;;;;;;5050030;28;21199;-70
2023/01/08 11:12:34;;;;;;;1.87;0.67;;;8.50;99.90;;;;;;5049405;28;21211;-69
2023/01/08 11:15:01;;;;;;;1.23;0.50;;;8.60;99.90;;;;;;5050272;28;20622;-69
2023/01/08 11:17:28;;;;;;;0.60;0.60;;;8.60;99.90;;;;;;5049586;28;20662;-70
2023/01/08 11:20:06;;;;;;;0.60;0.30;;;8.80;99.90;;;;;;5050069;28;20626;-70
2023/01/08 11:22:34;;;;;;;0.77;0.47;;;8.80;99.90;;;;;;5049758;28;21069;-70
2023/01/08 11:25:01;;;;;;;0.70;0.50;;;8.80;99.90;;;;;;5050077;28;20626;-70
2023/01/08 11:27:31;;;;;;;1.03;0.60;;;8.70;99.90;;;;;;5050102;28;20618;-69
2023/01/08 11:30:04;;;;;;;0.43;0.40;;;8.90;99.90;;;;;;5049639;28;20725;-69
2023/01/08 11:32:44;;;;;;;0.47;0.30;;;8.90;99.90;;;;;;5049197;28;20602;-69
2023/01/08 11:35:16;;;;;;;0.50;0.50;;;9.00;99.90;;;;;;5036139;28;20646;-69
2023/01/08 11:37:50;;;;;;;0.70;0.60;;;8.90;99.90;;;;;;5049561;28;20658;-70
2023/01/08 11:40:21;;;;;;;0.53;0.50;;;8.90;99.90;;;;;;5049804;28;20626;-70
2023/01/08 11:43:02;;;;;;;0.40;0.40;;;9.00;99.90;;;;;;5047499;28;20622;-69
2023/01/08 11:45:42;;;;;;;0.87;0.60;;;9.10;99.90;;;;;;5049793;28;21172;-69
2023/01/08 11:48:21;;;;;;;4.90;1.87;;;9.10;99.90;;;;;;5049635;28;20614;-69
2023/01/08 11:51:00;;;;;;;0.97;0.90;;;9.10;99.90;;;;;;5048516;28;20618;-70
2023/01/08 11:53:36;;;;;;;1.67;1.30;;;9.10;99.90;;;;;;5049677;28;20622;-69
2023/01/08 11:56:17;;;;;;;1.00;1.00;;;9.20;99.90;;;;;;5049577;28;20982;-69
2023/01/08 11:59:00;;;;;;;1.23;1.17;;;9.10;99.90;;;;;;5048437;28;20704;-69
2023/01/08 12:01:44;;;;;;;5.53;3.60;;;9.20;99.90;;;;;;5048236;28;20722;-69
2023/01/08 12:04:34;;;;;;;6.63;5.90;;;9.20;99.90;;;;;;5048924;28;20717;-69
2023/01/08 12:07:12;;;;;;;2.47;2.27;;;9.20;99.90;;;;;;5049132;28;20640;-70
2023/01/08 12:09:44;;;;;;;2.73;2.37;;;9.30;99.90;;;;;;5048824;28;21191;-69
2023/01/08 12:12:29;;;;;;;2.40;2.20;;;9.40;99.90;;;;;;5048713;28;21116;-69
2023/01/08 12:15:07;;;;;;;1.00;0.77;;;9.30;99.90;;;;;;5049407;28;20903;-69
2023/01/08 12:17:47;;;;;;;0.80;0.80;;;9.30;99.90;;;;;;5048811;28;20653;-69
2023/01/08 12:20:26;;;;;;;1.43;1.33;;;9.30;99.90;;;;;;5048721;28;21180;-69
2023/01/08 12:23:05;;;;;;;1.50;0.50;;;9.40;99.90;;;;;;5048549;28;20622;-69
2023/01/08 12:25:58;;;;;;;0.40;0.40;;;9.30;99.90;;;;;;5048683;28;21199;-70
2023/01/08 12:28:39;;;;;;;0.60;0.60;;;9.40;99.90;;;;;;5031566;28;20645;-69
2023/01/08 12:31:29;;;;;;;0.50;0.50;;;9.30;99.90;;;;;;5048204;28;21193;-69
2023/01/08 12:34:04;;;;;;;0.30;0.30;;;9.30;99.90;;;;;;5048567;28;20668;-69
2023/01/08 12:36:36;;;;;;;0.97;0.60;;;9.40;99.90;;;;;;5028991;28;20653;-70
2023/01/08 12:39:08;;;;;;;0.40;0.40;;;9.30;99.90;;;;;;5038483;28;20666;-70
2023/01/08 12:41:39;;;;;;;0.70;0.70;;;9.30;99.90;;;;;;5048520;28;20621;-70
2023/01/08 12:44:10;;;;;;;1.53;1.00;;;9.30;99.90;;;;;;5047949;28;21054;-70
2023/01/08 12:46:45;;;;;;;1.23;1.10;;;9.40;99.90;;;;;;5048728;28;21066;-69
2023/01/08 12:49:17;;;;;;;0.67;0.53;;;9.40;99.90;;;;;;5048261;28;21195;-70
2023/01/08 12:51:54;;;;;;;0.70;0.40;;;9.30;99.90;;;;;;5047827;28;20714;-69
2023/01/08 12:54:30;;;;;;;0.70;0.67;;;9.30;99.90;;;;;;5048452;28;20614;-69
2023/01/08 12:57:06;;;;;;;1.77;1.67;;;9.40;99.90;;;;;;5048516;28;20626;-69
2023/01/08 12:59:39;;;;;;;1.53;1.43;;;9.40;99.90;;;;;;5047158;28;20993;-69
2023/01/08 13:02:18;;;;;;;0.80;0.80;;;9.50;99.90;;;;;;5048172;28;20625;-69
2023/01/08 13:04:47;;;;;;;1.10;1.10;;;9.40;99.90;;;;;;5047978;28;20633;-69
2023/01/08 13:07:19;;;;;;;1.00;0.60;;;9.40;99.90;;;;;;5046467;28;21212;-69
2023/01/08 13:09:53;;;;;;;1.50;0.50;;;9.40;99.90;;;;;;5046298;28;20634;-69
2023/01/08 13:12:30;;;;;;;1.10;1.10;;;9.40;99.90;;;;;;5046815;28;20618;-69